Time;durP1;ratioP1;P1;durP2;ratioP2;P2;SDS_P1;SDS_P2;PMS_P1;PMS_P2;Temp;Humidity;BMP_temperature;BMP_pressure;BME280_temperature;BME280_humidity;BME280_pressure;Samples;Min_cycle;Max_cycle;Signal;HPM_P1;HPM_P2
2022/01/09 00:00:42;;;;;;;13.80;13.30;;;21.30;57.20;;;;;;5045901;28;20639;-47
2022/01/09 00:03:11;;;;;;;12.90;12.50;;;21.30;57.30;;;;;;5032745;28;21031;-48
2022/01/09 00:05:38;;;;;;;12.90;12.40;;;21.20;57.30;;;;;;5033131;28;20814;-52
2022/01/09 00:08:05;;;;;;;13.80;13.40;;;21.10;57.40;;;;;;5033149;28;20489;-46
2022/01/09 00:10:33;;;;;;;13.87;13.47;;;21.00;57.60;;;;;;5038138;28;20444;-46
2022/01/09 00:13:00;;;;;;;13.77;13.30;;;20.90;57.60;;;;;;5052664;28;20558;-48
2022/01/09 00:15:27;;;;;;;13.47;13.03;;;20.90;57.80;;;;;;5052342;28;20506;-47
2022/01/09 00:17:53;;;;;;;13.73;13.33;;;20.90;57.80;;;;;;5051871;28;20845;-52
2022/01/09 00:20:21;;;;;;;13.13;12.73;;;20.90;57.90;;;;;;5049074;28;20446;-48
2022/01/09 00:22:50;;;;;;;14.20;13.70;;;20.80;58.30;;;;;;5032432;28;20814;-49
2022/01/09 00:25:20;;;;;;;14.03;13.47;;;20.80;57.90;;;;;;5032706;28;20453;-46
2022/01/09 00:27:47;;;;;;;13.90;13.50;;;20.70;57.90;;;;;;5032815;28;20445;-47
2022/01/09 00:30:15;;;;;;;13.70;13.30;;;20.70;58.00;;;;;;5048373;28;20459;-48
2022/01/09 00:32:42;;;;;;;13.27;12.87;;;20.70;58.00;;;;;;5052169;28;20460;-47
2022/01/09 00:35:10;;;;;;;12.97;12.63;;;20.60;58.00;;;;;;5052419;28;20452;-48
2022/01/09 00:37:38;;;;;;;12.83;12.43;;;20.50;58.10;;;;;;5052497;28;20480;-48
2022/01/09 00:40:07;;;;;;;13.60;13.20;;;20.50;58.20;;;;;;5037501;28;20452;-47
2022/01/09 00:42:34;;;;;;;13.80;13.37;;;20.40;58.30;;;;;;5032561;28;20452;-48
2022/01/09 00:45:01;;;;;;;14.50;14.00;;;20.40;58.40;;;;;;5032581;28;21169;-48
2022/01/09 00:47:28;;;;;;;14.93;14.43;;;20.30;58.50;;;;;;5032425;28;20445;-50
2022/01/09 00:49:54;;;;;;;13.90;13.50;;;20.30;58.60;;;;;;5033384;28;20939;-47
2022/01/09 00:52:21;;;;;;;14.10;13.70;;;20.20;58.70;;;;;;5031922;28;20815;-48
2022/01/09 00:54:49;;;;;;;13.73;13.23;;;20.20;58.80;;;;;;5032157;28;20469;-47
2022/01/09 00:57:16;;;;;;;14.60;14.00;;;20.10;58.90;;;;;;5032059;28;20978;-49
2022/01/09 00:59:42;;;;;;;15.33;14.73;;;20.00;59.00;;;;;;5043122;28;20872;-48
2022/01/09 01:02:09;;;;;;;13.73;13.33;;;20.00;59.10;;;;;;5051810;28;20486;-50
2022/01/09 01:04:38;;;;;;;13.90;13.50;;;19.90;59.20;;;;;;5051864;28;20479;-48
2022/01/09 01:07:05;;;;;;;14.60;14.00;;;19.90;59.40;;;;;;5051813;28;20487;-49
2022/01/09 01:09:31;;;;;;;15.00;14.50;;;19.80;59.60;;;;;;5042258;28;20503;-49
2022/01/09 01:12:00;;;;;;;15.27;14.77;;;19.70;59.80;;;;;;5031692;28;20453;-48
2022/01/09 01:14:27;;;;;;;14.20;13.80;;;19.70;59.90;;;;;;5031699;28;20469;-46
2022/01/09 01:16:54;;;;;;;13.57;13.17;;;19.60;60.00;;;;;;5032030;28;20484;-47
2022/01/09 01:19:20;;;;;;;14.00;13.60;;;19.60;60.30;;;;;;5032878;28;20452;-49
2022/01/09 01:21:47;;;;;;;13.80;13.40;;;19.50;60.50;;;;;;5031717;28;20453;-49
2022/01/09 01:24:14;;;;;;;13.70;13.30;;;19.50;60.80;;;;;;5031625;28;20845;-49
2022/01/09 01:26:41;;;;;;;13.57;13.17;;;19.40;61.00;;;;;;5031789;28;20495;-47
2022/01/09 01:29:10;;;;;;;13.80;13.40;;;19.40;61.30;;;;;;5037029;28;20448;-47
2022/01/09 01:31:37;;;;;;;14.17;13.77;;;19.30;61.50;;;;;;5051339;28;20453;-49
2022/01/09 01:34:03;;;;;;;14.10;13.60;;;19.30;61.80;;;;;;5051400;28;20483;-49
2022/01/09 01:36:30;;;;;;;13.80;13.40;;;19.20;61.90;;;;;;5051392;28;20488;-49
2022/01/09 01:38:57;;;;;;;13.80;13.40;;;19.20;62.20;;;;;;5047372;28;20458;-49
2022/01/09 01:41:23;;;;;;;14.23;13.83;;;19.10;62.20;;;;;;5031371;28;20449;-50
2022/01/09 01:43:50;;;;;;;14.37;13.77;;;19.10;62.60;;;;;;5031408;28;20890;-53
2022/01/09 01:46:18;;;;;;;14.80;14.30;;;19.00;62.70;;;;;;5032301;28;20794;-49
2022/01/09 01:48:45;;;;;;;14.53;14.03;;;19.00;63.00;;;;;;5034359;28;20456;-53
2022/01/09 01:51:11;;;;;;;13.90;13.50;;;19.00;63.10;;;;;;5051917;28;20501;-47
2022/01/09 01:53:39;;;;;;;14.40;14.00;;;18.90;63.20;;;;;;5051912;28;20828;-54
2022/01/09 01:56:07;;;;;;;14.10;13.70;;;18.90;63.50;;;;;;5052142;28;20567;-55
2022/01/09 01:58:35;;;;;;;14.00;13.60;;;18.80;63.70;;;;;;5051812;28;20452;-50
2022/01/09 02:01:01;;;;;;;12.90;12.50;;;18.80;63.80;;;;;;5032334;28;20453;-47
2022/01/09 02:03:29;;;;;;;13.80;13.40;;;18.80;64.00;;;;;;5031361;28;20465;-49
2022/01/09 02:05:56;;;;;;;14.10;13.70;;;18.70;64.30;;;;;;5031850;28;20448;-51
2022/01/09 02:08:23;;;;;;;13.60;13.20;;;18.70;64.40;;;;;;5031948;28;20520;-52
2022/01/09 02:10:50;;;;;;;13.90;13.50;;;18.70;64.50;;;;;;5050402;28;20455;-51
2022/01/09 02:13:18;;;;;;;14.20;13.70;;;18.70;64.70;;;;;;5051480;28;20518;-49
2022/01/09 02:15:47;;;;;;;14.03;13.63;;;18.70;64.70;;;;;;5051669;28;20888;-47
2022/01/09 02:18:16;;;;;;;14.10;13.70;;;18.60;64.50;;;;;;5051643;28;20483;-51
2022/01/09 02:20:45;;;;;;;13.83;13.43;;;18.60;64.50;;;;;;5034198;28;20449;-49
2022/01/09 02:23:13;;;;;;;13.70;13.30;;;18.60;64.30;;;;;;5031769;28;20821;-49
2022/01/09 02:25:41;;;;;;;13.50;13.10;;;18.50;64.10;;;;;;5033481;28;20986;-50
2022/01/09 02:28:09;;;;;;;13.43;13.03;;;18.50;64.00;;;;;;5031935;28;20437;-50
2022/01/09 02:30:36;;;;;;;13.90;13.50;;;18.40;63.70;;;;;;5032152;28;20461;-50
2022/01/09 02:33:05;;;;;;;13.93;13.43;;;18.40;63.80;;;;;;5032082;28;20504;-54
2022/01/09 02:35:32;;;;;;;12.80;12.40;;;18.40;63.90;;;;;;5033115;28;20448;-52
2022/01/09 02:38:01;;;;;;;13.17;12.87;;;18.30;63.60;;;;;;5052756;28;20484;-49
2022/01/09 02:40:28;;;;;;;14.27;13.70;;;18.30;63.90;;;;;;5054876;28;20444;-49
2022/01/09 02:42:55;;;;;;;13.70;13.30;;;18.20;64.70;;;;;;5056345;28;20447;-48
2022/01/09 02:45:23;;;;;;;13.07;12.70;;;18.20;64.30;;;;;;5056044;28;20452;-49
2022/01/09 02:47:53;;;;;;;14.10;13.60;;;18.10;64.10;;;;;;5036285;28;20449;-47
2022/01/09 02:50:31;;;;;;;13.70;13.30;;;18.10;64.00;;;;;;5036041;28;20492;-48
2022/01/09 02:53:01;;;;;;;13.80;13.37;;;18.00;64.00;;;;;;5036245;28;20507;-54
2022/01/09 02:55:29;;;;;;;13.67;13.27;;;18.00;64.10;;;;;;5036560;28;20452;-50
2022/01/09 02:57:59;;;;;;;13.13;12.83;;;17.90;64.30;;;;;;5035947;28;20481;-49
2022/01/09 03:00:28;;;;;;;13.40;13.00;;;17.90;64.80;;;;;;5037043;28;20959;-47
2022/01/09 03:02:56;;;;;;;13.93;13.53;;;17.90;65.40;;;;;;5035298;28;20947;-49
2022/01/09 03:05:23;;;;;;;13.67;13.20;;;17.80;65.20;;;;;;5035426;28;20453;-47
2022/01/09 03:07:51;;;;;;;14.57;13.97;;;17.80;66.00;;;;;;5054595;28;20976;-48
2022/01/09 03:10:20;;;;;;;14.53;14.03;;;17.70;65.80;;;;;;5055517;28;20447;-48
2022/01/09 03:12:47;;;;;;;14.33;13.73;;;17.70;66.40;;;;;;5055163;28;20451;-50
2022/01/09 03:15:15;;;;;;;14.60;14.10;;;17.70;66.60;;;;;;5055285;28;20440;-46
2022/01/09 03:17:43;;;;;;;13.67;13.27;;;17.60;66.70;;;;;;5036908;28;20547;-46
2022/01/09 03:20:13;;;;;;;14.47;13.87;;;17.60;67.20;;;;;;5034799;28;20478;-46
2022/01/09 03:22:39;;;;;;;14.20;13.80;;;17.60;67.50;;;;;;5034429;28;20449;-45
2022/01/09 03:25:07;;;;;;;14.83;13.90;;;17.50;67.60;;;;;;5034874;28;20449;-46
2022/01/09 03:27:36;;;;;;;14.83;14.27;;;17.50;67.90;;;;;;5050577;28;20451;-46
2022/01/09 03:30:05;;;;;;;14.60;14.10;;;17.50;68.20;;;;;;5054987;28;20459;-48
2022/01/09 03:32:31;;;;;;;14.07;13.50;;;17.50;68.60;;;;;;5051578;28;20463;-50
2022/01/09 03:34:58;;;;;;;15.00;14.17;;;17.50;69.30;;;;;;5034872;28;20476;-50
2022/01/09 03:37:25;;;;;;;15.33;14.70;;;17.40;69.10;;;;;;5052552;28;20480;-49
2022/01/09 03:39:52;;;;;;;14.23;13.73;;;17.40;69.50;;;;;;5054478;28;20452;-49
2022/01/09 03:42:19;;;;;;;14.73;14.07;;;17.40;69.80;;;;;;5054501;28;20926;-48
2022/01/09 03:44:47;;;;;;;14.50;14.00;;;17.30;70.00;;;;;;5054518;28;20464;-50
2022/01/09 03:47:13;;;;;;;14.87;14.20;;;17.30;70.10;;;;;;5038283;28;20448;-51
2022/01/09 03:49:40;;;;;;;14.17;13.70;;;17.30;70.50;;;;;;5034709;28;20445;-48
2022/01/09 03:52:07;;;;;;;15.00;14.30;;;17.30;70.40;;;;;;5033900;28;20942;-51
2022/01/09 03:54:36;;;;;;;15.37;14.43;;;17.20;70.50;;;;;;5034034;28;20469;-51
2022/01/09 03:57:03;;;;;;;14.70;14.10;;;17.20;70.60;;;;;;5047796;28;21036;-48
2022/01/09 03:59:30;;;;;;;14.07;13.67;;;17.20;71.40;;;;;;5053456;28;20448;-50
2022/01/09 04:01:58;;;;;;;14.40;13.80;;;17.20;71.80;;;;;;5053391;28;20491;-50
2022/01/09 04:04:24;;;;;;;13.50;13.10;;;17.10;71.60;;;;;;5053608;28;20475;-48
2022/01/09 04:06:51;;;;;;;13.77;13.27;;;17.10;72.00;;;;;;5040862;28;20448;-46
2022/01/09 04:09:21;;;;;;;14.10;13.70;;;17.10;72.20;;;;;;5033698;28;20452;-49
2022/01/09 04:11:49;;;;;;;13.93;13.53;;;17.10;72.80;;;;;;5033212;28;20544;-49
2022/01/09 04:14:16;;;;;;;14.07;13.57;;;17.10;72.90;;;;;;5033788;28;20461;-48
2022/01/09 04:16:43;;;;;;;14.03;13.53;;;17.10;73.50;;;;;;5044267;28;20517;-48
2022/01/09 04:19:13;;;;;;;14.23;13.83;;;17.10;73.90;;;;;;5053466;28;20509;-48
2022/01/09 04:21:42;;;;;;;14.07;13.50;;;17.10;74.30;;;;;;5053416;28;20452;-48
2022/01/09 04:24:09;;;;;;;14.70;14.20;;;17.10;74.00;;;;;;5052931;28;20496;-49
2022/01/09 04:26:35;;;;;;;15.03;14.43;;;17.10;74.10;;;;;;5042671;28;20456;-47
2022/01/09 04:29:02;;;;;;;14.30;13.90;;;17.10;74.40;;;;;;5032887;28;20834;-50
2022/01/09 04:31:29;;;;;;;14.80;14.30;;;17.10;74.80;;;;;;5032654;28;20449;-53
2022/01/09 04:33:55;;;;;;;14.20;13.80;;;17.10;75.20;;;;;;5032573;28;20477;-48
2022/01/09 04:36:23;;;;;;;13.90;13.50;;;17.10;75.70;;;;;;5040852;28;20485;-49
2022/01/09 04:38:51;;;;;;;14.63;14.13;;;17.10;75.90;;;;;;5052400;28;20997;-50
2022/01/09 04:41:17;;;;;;;14.73;14.23;;;17.20;75.60;;;;;;5052861;28;20448;-49
2022/01/09 04:43:45;;;;;;;15.17;14.67;;;17.10;76.10;;;;;;5052797;28;20472;-50
2022/01/09 04:46:18;;;;;;;14.77;14.23;;;17.10;76.20;;;;;;5046424;28;20449;-49
2022/01/09 04:48:46;;;;;;;14.43;13.93;;;17.10;76.60;;;;;;5032553;28;20532;-51
2022/01/09 04:51:14;;;;;;;14.57;14.07;;;17.10;77.30;;;;;;5032533;28;20460;-50
2022/01/09 04:53:42;;;;;;;14.47;13.87;;;17.10;77.00;;;;;;5032314;28;20472;-49
2022/01/09 04:56:09;;;;;;;14.30;13.80;;;17.10;77.20;;;;;;5037899;28;20440;-48
2022/01/09 04:58:36;;;;;;;14.70;14.10;;;17.10;77.40;;;;;;5052143;28;20480;-48
2022/01/09 05:01:03;;;;;;;14.80;14.30;;;17.20;77.30;;;;;;5052204;28;20456;-46
2022/01/09 05:03:29;;;;;;;15.33;14.23;;;17.10;77.20;;;;;;5051246;28;20490;-50
2022/01/09 05:05:56;;;;;;;14.53;14.13;;;17.10;77.10;;;;;;5048275;28;20453;-51
2022/01/09 05:08:23;;;;;;;14.80;14.10;;;17.10;77.70;;;;;;5032298;28;20453;-46
2022/01/09 05:10:51;;;;;;;14.80;14.20;;;17.10;77.70;;;;;;5032411;28;20862;-46
2022/01/09 05:13:17;;;;;;;14.70;14.00;;;17.10;77.90;;;;;;5032002;28;20465;-46
2022/01/09 05:15:44;;;;;;;15.27;14.57;;;17.10;78.00;;;;;;5034021;28;20931;-48
2022/01/09 05:18:14;;;;;;;15.17;14.63;;;17.10;78.00;;;;;;5051879;28;20480;-46
2022/01/09 05:20:40;;;;;;;15.63;14.70;;;17.10;78.10;;;;;;5051581;28;20510;-48
2022/01/09 05:23:07;;;;;;;15.03;14.50;;;17.10;77.90;;;;;;5052122;28;20468;-46
2022/01/09 05:25:34;;;;;;;15.87;14.97;;;17.10;78.00;;;;;;5052711;28;20506;-48
2022/01/09 05:28:02;;;;;;;15.67;14.97;;;17.10;78.10;;;;;;5032929;28;20564;-49
2022/01/09 05:30:28;;;;;;;15.00;14.40;;;17.00;77.80;;;;;;5032437;28;20943;-51
2022/01/09 05:32:55;;;;;;;14.97;14.27;;;17.00;78.10;;;;;;5031975;28;20869;-47
2022/01/09 05:35:22;;;;;;;15.97;15.40;;;17.00;77.90;;;;;;5032595;28;20441;-49
2022/01/09 05:37:49;;;;;;;15.93;15.13;;;17.00;78.40;;;;;;5050579;28;20480;-49
2022/01/09 05:40:16;;;;;;;15.00;14.50;;;17.00;78.80;;;;;;5052302;28;20513;-50
2022/01/09 05:42:43;;;;;;;13.43;13.00;;;17.00;79.10;;;;;;5051808;28;20456;-49
2022/01/09 05:45:11;;;;;;;13.80;13.30;;;17.00;79.30;;;;;;5041568;28;20454;-48
2022/01/09 05:47:38;;;;;;;14.43;13.90;;;17.00;79.20;;;;;;5046652;28;20443;-49
2022/01/09 05:50:05;;;;;;;14.30;13.70;;;17.00;79.50;;;;;;5053062;28;20779;-48
2022/01/09 05:52:32;;;;;;;14.20;13.63;;;17.30;81.90;;;;;;5052617;28;20448;-53
2022/01/09 05:54:59;;;;;;;15.30;14.50;;;17.80;79.20;;;;;;5044197;28;20831;-52
2022/01/09 05:57:25;;;;;;;14.20;13.60;;;18.10;75.90;;;;;;5033181;28;20487;-49
2022/01/09 05:59:53;;;;;;;14.90;14.17;;;18.40;73.60;;;;;;5033175;28;20449;-49
2022/01/09 06:02:21;;;;;;;14.17;13.77;;;18.60;71.60;;;;;;5033178;28;20445;-53
2022/01/09 06:04:47;;;;;;;14.60;14.00;;;18.70;70.10;;;;;;5024848;28;20468;-46
2022/01/09 06:07:14;;;;;;;14.70;14.10;;;18.80;69.00;;;;;;5039949;28;20936;-45
2022/01/09 06:09:41;;;;;;;15.00;14.20;;;18.90;68.20;;;;;;5040817;28;20448;-49
2022/01/09 06:12:09;;;;;;;15.00;14.50;;;19.10;67.10;;;;;;5040673;28;20963;-47
2022/01/09 06:14:35;;;;;;;15.30;14.70;;;19.10;66.40;;;;;;5038681;28;20503;-50
2022/01/09 06:17:02;;;;;;;15.13;14.50;;;19.20;66.20;;;;;;5024487;28;20451;-47
2022/01/09 06:19:30;;;;;;;15.10;14.40;;;19.20;65.20;;;;;;5024139;28;20487;-47
2022/01/09 06:21:57;;;;;;;15.13;14.47;;;19.30;65.40;;;;;;5024427;28;20457;-49
2022/01/09 06:24:23;;;;;;;15.07;14.57;;;19.30;65.00;;;;;;5025432;28;20471;-48
2022/01/09 06:26:50;;;;;;;14.00;13.50;;;19.40;64.60;;;;;;5043846;28;20443;-52
2022/01/09 06:29:19;;;;;;;15.10;14.60;;;19.40;64.00;;;;;;5044207;28;20210;-46
2022/01/09 06:31:46;;;;;;;13.80;13.30;;;19.50;63.90;;;;;;5043970;28;20970;-47
2022/01/09 06:34:13;;;;;;;14.80;14.30;;;19.50;63.40;;;;;;5044539;28;20717;-48
2022/01/09 06:36:41;;;;;;;16.10;15.30;;;19.60;63.00;;;;;;5025895;28;20445;-48
2022/01/09 06:39:09;;;;;;;15.07;14.33;;;19.60;62.20;;;;;;5025727;28;20511;-47
2022/01/09 06:41:35;;;;;;;14.97;14.47;;;19.60;62.10;;;;;;5027695;28;20729;-46
2022/01/09 06:44:02;;;;;;;14.77;14.30;;;19.60;62.20;;;;;;5043764;28;20830;-47
2022/01/09 06:46:29;;;;;;;15.13;14.57;;;19.60;61.70;;;;;;5043680;28;20451;-46
2022/01/09 06:48:55;;;;;;;15.27;14.63;;;19.60;61.30;;;;;;5043679;28;20444;-46
2022/01/09 06:51:22;;;;;;;15.10;14.47;;;19.60;60.90;;;;;;5042709;28;20785;-47
2022/01/09 06:53:50;;;;;;;14.73;14.10;;;19.60;60.70;;;;;;5023233;28;20997;-47
2022/01/09 06:56:17;;;;;;;15.00;14.37;;;19.60;60.80;;;;;;5023578;28;20453;-47
2022/01/09 06:58:43;;;;;;;14.23;13.73;;;19.60;60.90;;;;;;5023232;28;20493;-46
2022/01/09 07:01:10;;;;;;;14.83;14.33;;;19.60;60.40;;;;;;5023224;28;20476;-47
2022/01/09 07:03:37;;;;;;;14.43;13.87;;;19.60;60.50;;;;;;5040749;28;20479;-47
2022/01/09 07:06:03;;;;;;;14.63;14.03;;;19.60;60.60;;;;;;5041938;28;20818;-46
2022/01/09 07:08:33;;;;;;;14.03;13.63;;;19.60;60.70;;;;;;5042195;28;20927;-43
2022/01/09 07:11:01;;;;;;;14.50;13.90;;;19.60;60.50;;;;;;5042439;28;20460;-45
2022/01/09 07:13:28;;;;;;;14.27;13.83;;;19.80;61.30;;;;;;5026039;28;20488;-46
2022/01/09 07:15:55;;;;;;;16.40;15.80;;;19.90;60.90;;;;;;5023608;28;21110;-48
2022/01/09 07:18:22;;;;;;;14.90;14.40;;;20.10;61.00;;;;;;5023223;28;20489;-48
2022/01/09 07:20:48;;;;;;;15.30;14.60;;;20.20;60.70;;;;;;5023163;28;20453;-47
2022/01/09 07:23:15;;;;;;;15.10;14.60;;;20.30;60.60;;;;;;5037880;28;20985;-48
2022/01/09 07:25:42;;;;;;;15.60;15.00;;;20.30;60.00;;;;;;5042502;28;20506;-47
2022/01/09 07:28:10;;;;;;;10.07;9.77;;;20.40;59.90;;;;;;5042842;28;20965;-48
2022/01/09 07:30:37;;;;;;;10.07;9.77;;;20.40;59.70;;;;;;5042569;28;20478;-49
2022/01/09 07:33:04;;;;;;;10.00;9.60;;;20.40;59.40;;;;;;5029186;28;21628;-52
2022/01/09 07:35:32;;;;;;;10.53;10.33;;;20.40;59.40;;;;;;5023218;28;20465;-48
2022/01/09 07:37:58;;;;;;;10.27;9.77;;;20.40;59.50;;;;;;5022949;28;20485;-46
2022/01/09 07:40:25;;;;;;;10.93;10.63;;;20.40;59.10;;;;;;5022625;28;20452;-47
2022/01/09 07:42:52;;;;;;;10.13;9.83;;;20.40;59.10;;;;;;5033715;28;20452;-47
2022/01/09 07:45:24;;;;;;;10.23;9.93;;;20.40;59.00;;;;;;5042784;28;20444;-48
2022/01/09 07:47:51;;;;;;;10.40;10.00;;;20.30;59.00;;;;;;5042826;28;20452;-49
2022/01/09 07:50:18;;;;;;;11.10;10.70;;;20.40;58.90;;;;;;5037466;28;21249;-46
2022/01/09 07:52:46;;;;;;;10.20;9.97;;;20.40;58.60;;;;;;5021184;28;20456;-50
2022/01/09 07:55:14;;;;;;;9.87;9.63;;;20.40;58.50;;;;;;5021524;28;20795;-46
2022/01/09 07:57:41;;;;;;;10.87;10.47;;;20.40;58.40;;;;;;5021685;28;21171;-52
2022/01/09 08:00:09;;;;;;;9.30;8.90;;;20.30;58.30;;;;;;5021842;28;20456;-49
2022/01/09 08:02:38;;;;;;;10.47;10.07;;;20.40;58.50;;;;;;5021503;28;20215;-50
2022/01/09 08:05:07;;;;;;;9.93;9.63;;;20.40;58.10;;;;;;5021048;28;20854;-50
2022/01/09 08:07:34;;;;;;;9.83;9.53;;;20.50;58.50;;;;;;5021112;28;20448;-54
2022/01/09 08:10:00;;;;;;;10.07;9.60;;;20.60;58.90;;;;;;5032950;28;20452;-51
2022/01/09 08:12:27;;;;;;;10.10;9.77;;;20.90;59.00;;;;;;5041361;28;20451;-48
2022/01/09 08:14:54;;;;;;;9.90;9.60;;;21.40;58.70;;;;;;5041171;28;20475;-48
2022/01/09 08:17:21;;;;;;;10.20;9.80;;;21.70;57.90;;;;;;5041181;28;20452;-49
2022/01/09 08:19:49;;;;;;;9.53;9.33;;;22.10;57.30;;;;;;5031945;28;20485;-46
2022/01/09 08:22:16;;;;;;;10.30;10.00;;;22.40;56.30;;;;;;5021388;28;20460;-49
2022/01/09 08:24:43;;;;;;;10.07;9.77;;;22.50;55.40;;;;;;5021086;28;20471;-46
2022/01/09 08:27:10;;;;;;;9.70;9.40;;;22.70;55.20;;;;;;5020958;28;20499;-48
2022/01/09 08:29:38;;;;;;;10.60;10.30;;;22.80;54.60;;;;;;5035799;28;20444;-51
2022/01/09 08:32:07;;;;;;;11.73;11.13;;;22.90;54.30;;;;;;5041384;28;20548;-50
2022/01/09 08:34:33;;;;;;;11.60;11.20;;;23.00;53.80;;;;;;5040444;28;20468;-47
2022/01/09 08:37:02;;;;;;;10.10;9.70;;;23.10;53.10;;;;;;5040804;28;20452;-56
2022/01/09 08:39:29;;;;;;;10.20;9.90;;;23.20;52.90;;;;;;5027202;28;20484;-50
2022/01/09 08:41:56;;;;;;;10.47;10.27;;;23.20;52.60;;;;;;5020838;28;20464;-49
2022/01/09 08:44:22;;;;;;;11.10;10.37;;;23.30;52.60;;;;;;5020569;28;20843;-49
2022/01/09 08:46:49;;;;;;;9.80;9.50;;;23.40;52.30;;;;;;5020817;28;20452;-46
2022/01/09 08:49:16;;;;;;;10.40;10.00;;;23.50;52.20;;;;;;5032498;28;20494;-48
2022/01/09 08:51:42;;;;;;;10.30;9.90;;;23.60;52.10;;;;;;5039515;28;20459;-50
2022/01/09 08:54:10;;;;;;;10.73;10.30;;;23.80;52.00;;;;;;5039971;28;20479;-45
2022/01/09 08:56:39;;;;;;;10.37;9.97;;;23.90;51.40;;;;;;5040141;28;20865;-49
2022/01/09 08:59:06;;;;;;;10.93;10.33;;;24.10;51.20;;;;;;5029810;28;21154;-49
2022/01/09 09:01:32;;;;;;;9.90;9.60;;;24.20;50.70;;;;;;5020058;28;20457;-48
2022/01/09 09:04:00;;;;;;;9.93;9.53;;;24.30;50.50;;;;;;5019984;28;20496;-45
2022/01/09 09:06:27;;;;;;;10.40;10.10;;;24.30;50.20;;;;;;5020033;28;20449;-48
2022/01/09 09:08:54;;;;;;;9.77;9.47;;;24.30;49.90;;;;;;5024694;28;20536;-49
2022/01/09 09:11:23;;;;;;;10.40;10.10;;;24.40;49.80;;;;;;5020481;28;20460;-47
2022/01/09 09:13:50;;;;;;;8.70;8.38;;;24.40;50.00;;;;;;5019501;28;20445;-48
2022/01/09 09:16:17;;;;;;;9.17;8.97;;;24.60;50.20;;;;;;5020079;28;20213;-47
2022/01/09 09:18:46;;;;;;;9.40;9.10;;;24.70;49.20;;;;;;5026816;28;20483;-48
2022/01/09 09:21:14;;;;;;;10.10;9.80;;;24.80;49.00;;;;;;5039928;28;20506;-46
2022/01/09 09:23:41;;;;;;;11.33;11.03;;;24.90;48.90;;;;;;5039412;28;21256;-50
2022/01/09 09:26:10;;;;;;;10.00;9.70;;;25.00;48.70;;;;;;5039783;28;20444;-50
2022/01/09 09:28:39;;;;;;;10.10;9.80;;;25.00;48.30;;;;;;5033927;28;20445;-52
2022/01/09 09:31:06;;;;;;;9.77;9.57;;;25.00;47.90;;;;;;5019763;28;20453;-52
2022/01/09 09:33:33;;;;;;;9.90;9.60;;;25.00;47.90;;;;;;5019731;28;20480;-51
2022/01/09 09:36:03;;;;;;;10.40;10.00;;;25.00;47.70;;;;;;5020406;28;20913;-49
2022/01/09 09:38:30;;;;;;;10.23;9.93;;;25.00;47.90;;;;;;5026270;28;20452;-52
2022/01/09 09:40:57;;;;;;;10.00;9.70;;;25.10;48.10;;;;;;5039922;28;20452;-48
2022/01/09 09:43:25;;;;;;;9.90;9.53;;;25.20;47.70;;;;;;5039447;28;20472;-49
2022/01/09 09:45:54;;;;;;;9.13;8.93;;;25.40;47.40;;;;;;5039411;28;20444;-49
2022/01/09 09:48:21;;;;;;;8.70;8.40;;;25.40;47.20;;;;;;5035433;28;20926;-46
2022/01/09 09:50:49;;;;;;;10.33;10.03;;;25.60;47.00;;;;;;5023087;28;20195;-52
2022/01/09 09:53:15;;;;;;;11.03;10.53;;;25.60;46.60;;;;;;5023362;28;20473;-50
2022/01/09 09:55:44;;;;;;;10.70;10.30;;;25.60;46.40;;;;;;5023601;28;20810;-49
2022/01/09 09:58:11;;;;;;;10.07;9.67;;;25.50;46.10;;;;;;5025394;28;20448;-51
2022/01/09 10:00:39;;;;;;;9.40;9.10;;;25.60;46.40;;;;;;5023531;28;20846;-48
2022/01/09 10:03:07;;;;;;;10.57;10.17;;;25.70;46.60;;;;;;5024098;28;20479;-50
2022/01/09 10:05:36;;;;;;;10.67;10.20;;;25.90;46.20;;;;;;5023510;28;20460;-52
2022/01/09 10:08:08;;;;;;;12.00;11.50;;;25.90;45.90;;;;;;5023670;28;20461;-50
2022/01/09 10:10:37;;;;;;;10.00;9.70;;;26.00;45.80;;;;;;5043121;28;20448;-50
2022/01/09 10:13:09;;;;;;;10.43;10.13;;;26.00;45.70;;;;;;5043167;28;20971;-50
2022/01/09 10:15:48;;;;;;;11.00;10.60;;;26.00;45.50;;;;;;5043218;28;20455;-50
2022/01/09 10:18:40;;;;;;;10.13;9.93;;;25.90;45.40;;;;;;5041199;28;20783;-49
2022/01/09 10:21:08;;;;;;;9.60;9.40;;;25.90;45.60;;;;;;5023195;28;20519;-50
2022/01/09 10:23:35;;;;;;;10.63;10.23;;;25.80;45.50;;;;;;5023483;28;20921;-50
2022/01/09 10:26:11;;;;;;;10.23;10.03;;;25.80;45.60;;;;;;5023060;28;20589;-48
2022/01/09 10:28:39;;;;;;;10.77;10.47;;;26.00;45.90;;;;;;5027285;28;20475;-51
2022/01/09 10:31:16;;;;;;;13.83;13.23;;;26.20;45.60;;;;;;5042685;28;20459;-49
2022/01/09 10:33:57;;;;;;;11.70;11.30;;;26.30;45.20;;;;;;5042471;28;20889;-48
2022/01/09 10:36:38;;;;;;;10.60;10.30;;;26.30;44.80;;;;;;5042661;28;20586;-49
2022/01/09 10:39:09;;;;;;;11.70;11.30;;;26.30;44.60;;;;;;5034520;28;20487;-55
2022/01/09 10:41:55;;;;;;;11.80;11.50;;;26.30;44.50;;;;;;5022880;28;20451;-49
2022/01/09 10:44:27;;;;;;;10.60;10.20;;;26.20;44.20;;;;;;5022793;28;20921;-47
2022/01/09 10:46:59;;;;;;;10.80;10.50;;;26.00;43.90;;;;;;5023934;28;20459;-49
2022/01/09 10:49:37;;;;;;;11.57;11.13;;;26.00;44.00;;;;;;5022758;28;20449;-48
2022/01/09 10:52:15;;;;;;;10.60;10.23;;;25.90;44.10;;;;;;5022514;28;20460;-50
2022/01/09 10:54:46;;;;;;;11.37;11.07;;;26.00;44.50;;;;;;5022732;28;20495;-48
2022/01/09 10:57:15;;;;;;;11.30;10.90;;;26.30;44.40;;;;;;5042533;28;20448;-48
2022/01/09 10:59:42;;;;;;;11.30;11.00;;;26.40;43.90;;;;;;5042379;28;20926;-48
2022/01/09 11:02:12;;;;;;;11.50;11.20;;;26.50;43.70;;;;;;5041300;28;20471;-51
2022/01/09 11:04:42;;;;;;;10.23;9.83;;;26.50;43.40;;;;;;5028914;28;20468;-48
2022/01/09 11:07:09;;;;;;;11.47;10.73;;;26.50;43.50;;;;;;5037887;28;20456;-48
2022/01/09 11:09:38;;;;;;;11.33;10.93;;;26.50;43.50;;;;;;5028660;28;20531;-47
2022/01/09 11:12:07;;;;;;;11.53;11.13;;;26.50;43.50;;;;;;5022489;28;20456;-52
2022/01/09 11:14:39;;;;;;;10.80;10.50;;;26.40;43.50;;;;;;5022306;28;20469;-47
2022/01/09 11:17:08;;;;;;;9.87;9.57;;;26.40;43.60;;;;;;5027811;28;20747;-52
2022/01/09 11:19:36;;;;;;;9.07;8.77;;;26.50;43.50;;;;;;5042159;28;20490;-49
2022/01/09 11:22:07;;;;;;;9.07;8.80;;;26.50;43.30;;;;;;5042084;28;20454;-46
2022/01/09 11:25:04;;;;;;;10.03;9.73;;;26.60;43.20;;;;;;5041915;28;20478;-47
2022/01/09 11:27:56;;;;;;;10.70;10.40;;;26.60;43.40;;;;;;5033577;28;21094;-48
2022/01/09 11:30:36;;;;;;;9.27;9.07;;;26.50;43.10;;;;;;5021886;28;20445;-48
2022/01/09 11:33:14;;;;;;;10.60;10.20;;;26.60;43.20;;;;;;5032283;28;20481;-48
2022/01/09 11:35:55;;;;;;;11.53;10.87;;;26.50;43.20;;;;;;5022087;28;20445;-47
2022/01/09 11:38:29;;;;;;;10.03;9.73;;;26.80;43.20;;;;;;5021786;28;21077;-47
2022/01/09 11:41:14;;;;;;;10.47;10.10;;;27.70;42.50;;;;;;5021655;28;20956;-45
2022/01/09 11:43:53;;;;;;;9.90;9.60;;;28.40;41.90;;;;;;5030308;28;20810;-44
2022/01/09 11:46:20;;;;;;;10.37;10.07;;;28.40;40.50;;;;;;5041368;28;20548;-45
2022/01/09 11:49:06;;;;;;;9.67;9.27;;;28.00;40.50;;;;;;5041279;28;20451;-44
2022/01/09 11:51:35;;;;;;;8.35;8.05;;;28.30;40.70;;;;;;5040504;28;20431;-44
2022/01/09 11:54:10;;;;;;;11.23;10.87;;;28.40;40.30;;;;;;5029094;28;20245;-46
2022/01/09 11:56:57;;;;;;;10.17;9.83;;;28.20;40.30;;;;;;5021643;28;20452;-46
2022/01/09 11:59:30;;;;;;;10.27;9.77;;;28.00;40.60;;;;;;5021525;28;20993;-46
2022/01/09 12:01:59;;;;;;;10.93;10.50;;;27.70;40.70;;;;;;5021244;28;20453;-47
2022/01/09 12:05:06;;;;;;;10.43;10.13;;;27.40;41.10;;;;;;5036244;28;20839;-50
2022/01/09 12:08:10;;;;;;;10.60;10.13;;;27.20;41.70;;;;;;5040871;28;20488;-48
2022/01/09 12:10:58;;;;;;;10.47;10.07;;;27.40;42.10;;;;;;5041266;28;21024;-49
2022/01/09 12:13:43;;;;;;;11.03;10.63;;;27.40;41.80;;;;;;5033337;28;20952;-47
2022/01/09 12:16:31;;;;;;;8.48;8.18;;;27.50;42.00;;;;;;5023488;28;20894;-47
2022/01/09 12:18:58;;;;;;;9.45;9.15;;;27.60;41.90;;;;;;5026236;28;20472;-47
2022/01/09 12:21:52;;;;;;;9.67;9.37;;;27.60;41.90;;;;;;5021460;28;20273;-45
2022/01/09 12:24:42;;;;;;;10.83;10.43;;;27.40;41.60;;;;;;5021004;28;20477;-47
2022/01/09 12:27:46;;;;;;;10.27;10.03;;;27.20;41.90;;;;;;5028253;28;20921;-50
2022/01/09 12:30:52;;;;;;;10.20;9.90;;;27.10;42.10;;;;;;5040807;28;20883;-47
2022/01/09 12:33:49;;;;;;;12.00;11.40;;;27.10;42.30;;;;;;5040417;28;20489;-48
2022/01/09 12:36:31;;;;;;;10.77;10.50;;;27.10;42.10;;;;;;5040011;28;20456;-48
2022/01/09 12:39:02;;;;;;;11.07;10.53;;;27.20;42.20;;;;;;5020808;28;20456;-46
2022/01/09 12:41:36;;;;;;;10.77;10.47;;;27.20;42.20;;;;;;5020533;28;20481;-46